Time;durP1;ratioP1;P1;durP2;ratioP2;P2;SDS_P1;SDS_P2;PMS_P1;PMS_P2;Temp;Humidity;BMP_temperature;BMP_pressure;BME280_temperature;BME280_humidity;BME280_pressure;Samples;Min_cycle;Max_cycle;Signal;HPM_P1;HPM_P2
2022/07/11 00:00:24;133764.00;0.45;231.82;0.00;0.00;0.62;;;;;20.90;1.00;;;;;;2272523;61;1994;-85
2022/07/11 00:02:52;210261.00;0.70;363.58;0.00;0.00;0.62;;;;;20.90;1.00;;;;;;2272475;61;1129;-88
2022/07/11 00:05:19;28691.00;0.10;50.32;0.00;0.00;0.62;;;;;21.10;1.00;;;;;;2272510;61;1058;-86
2022/07/11 00:07:47;149077.00;0.50;258.22;0.00;0.00;0.62;;;;;20.80;1.00;;;;;;2272326;61;1607;-86
2022/07/11 00:10:14;83900.00;0.28;145.77;0.00;0.00;0.62;;;;;20.80;1.00;;;;;;2272477;61;1938;-86
2022/07/11 00:12:42;227552.00;0.76;393.34;0.00;0.00;0.62;;;;;20.60;1.00;;;;;;2272384;61;1554;-87
2022/07/11 00:15:10;327025.00;1.09;564.37;58985.00;0.20;102.72;;;;;20.90;1.00;;;;;;2272583;61;983;-88
2022/07/11 00:17:37;67371.00;0.22;117.22;0.00;0.00;0.62;;;;;21.00;1.00;;;;;;2272429;61;1077;-87
2022/07/11 00:20:04;145314.00;0.48;251.73;0.00;0.00;0.62;;;;;20.90;1.00;;;;;;2272440;61;1997;-85
2022/07/11 00:22:32;218409.00;0.73;377.61;0.00;0.00;0.62;;;;;21.00;1.00;;;;;;2272429;61;1558;-85
2022/07/11 00:24:59;377611.00;1.26;651.32;11604.00;0.04;20.73;;;;;21.00;1.00;;;;;;2272382;61;952;-87
2022/07/11 00:27:26;146131.00;0.49;253.14;0.00;0.00;0.62;;;;;21.00;1.00;;;;;;2272257;61;981;-86
2022/07/11 00:29:54;94001.00;0.31;163.22;0.00;0.00;0.62;;;;;21.30;1.00;;;;;;2272424;61;1274;-87
2022/07/11 00:32:21;194741.00;0.65;336.87;0.00;0.00;0.62;;;;;21.30;1.00;;;;;;2272414;61;1098;-86
2022/07/11 00:34:49;333859.00;1.11;576.12;12635.00;0.04;22.51;;;;;21.30;1.00;;;;;;2272481;61;1095;-87
2022/07/11 00:37:16;189044.00;0.63;327.06;0.00;0.00;0.62;;;;;21.20;1.00;;;;;;2272382;61;1569;-85
2022/07/11 00:39:43;91903.00;0.31;159.59;0.00;0.00;0.62;;;;;21.10;1.00;;;;;;2272397;61;1912;-85
2022/07/11 00:42:10;68803.00;0.23;119.69;0.00;0.00;0.62;;;;;21.00;1.00;;;;;;2272318;61;1676;-86
2022/07/11 00:44:37;361133.00;1.20;623.00;35524.00;0.12;62.14;;;;;21.10;1.00;;;;;;2272357;61;1023;-85
2022/07/11 00:47:05;421767.00;1.41;727.23;99213.00;0.33;172.21;;;;;21.10;1.00;;;;;;2272454;61;878;-87
2022/07/11 00:49:32;136618.00;0.46;236.74;0.00;0.00;0.62;;;;;21.00;1.00;;;;;;2272374;61;1015;-85
2022/07/11 00:51:59;124657.00;0.42;216.11;0.00;0.00;0.62;;;;;21.00;1.00;;;;;;2272445;61;1369;-85
2022/07/11 00:54:28;315544.00;1.05;544.64;33908.00;0.11;59.35;;;;;20.60;1.00;;;;;;2305732;40;3756;-86
2022/07/11 00:56:56;230536.00;0.77;398.47;46371.00;0.15;80.91;;;;;19.50;1.00;;;;;;2276479;60;1609;-86
2022/07/11 00:59:23;86396.00;0.29;150.08;0.00;0.00;0.62;;;;;19.50;1.00;;;;;;2276291;60;1927;-85
2022/07/11 01:01:50;212037.00;0.71;366.64;0.00;0.00;0.62;;;;;20.00;1.00;;;;;;2276361;60;1580;-86
2022/07/11 01:04:18;205746.00;0.69;355.81;0.00;0.00;0.62;;;;;20.00;1.00;;;;;;2276462;60;982;-88
2022/07/11 01:06:45;166391.00;0.55;288.05;0.00;0.00;0.62;;;;;19.60;1.00;;;;;;2276455;60;1827;-85
2022/07/11 01:09:12;212848.00;0.71;368.04;0.00;0.00;0.62;;;;;19.40;1.00;;;;;;2276205;60;2138;-86
2022/07/11 01:11:39;132821.00;0.44;230.19;0.00;0.00;0.62;;;;;19.10;1.00;;;;;;2276368;60;2071;-86
2022/07/11 01:14:06;201491.00;0.67;348.49;0.00;0.00;0.62;;;;;19.00;1.00;;;;;;2276298;60;1531;-87
2022/07/11 01:16:33;247723.00;0.83;428.03;42591.00;0.14;74.37;;;;;18.80;1.00;;;;;;2276423;60;1027;-85
2022/07/11 01:19:00;267118.00;0.89;461.39;0.00;0.00;0.62;;;;;18.70;1.00;;;;;;2276359;60;1574;-85
2022/07/11 01:21:31;109733.00;0.37;190.37;0.00;0.00;0.62;;;;;18.80;1.00;;;;;;2276275;60;2021;-86
2022/07/11 01:24:01;40609.00;0.14;70.94;0.00;0.00;0.62;;;;;18.60;1.00;;;;;;2276327;60;1031;-85
2022/07/11 01:26:29;166340.00;0.55;287.96;0.00;0.00;0.62;;;;;18.60;1.00;;;;;;2276335;60;1141;-87
2022/07/11 01:29:04;204066.00;0.68;352.92;0.00;0.00;0.62;;;;;18.60;1.00;;;;;;2276349;60;1035;-84
2022/07/11 01:31:31;240105.00;0.80;414.93;0.00;0.00;0.62;;;;;18.30;1.00;;;;;;2276281;60;1355;-86
2022/07/11 01:33:59;158501.00;0.53;274.46;0.00;0.00;0.62;;;;;18.20;1.00;;;;;;2276312;60;1020;-85
2022/07/11 01:36:26;333105.00;1.11;574.82;0.00;0.00;0.62;;;;;18.60;1.00;;;;;;2276230;60;1018;-85
2022/07/11 01:38:53;331079.00;1.10;571.34;21881.00;0.07;38.53;;;;;18.90;1.00;;;;;;2276160;60;1191;-85
2022/07/11 01:41:24;240073.00;0.80;414.88;0.00;0.00;0.62;;;;;19.50;1.00;;;;;;2276186;60;1998;-85
2022/07/11 01:43:52;171913.00;0.57;297.56;0.00;0.00;0.62;;;;;19.40;1.00;;;;;;2276291;60;967;-84
2022/07/11 01:46:21;193829.00;0.65;335.30;0.00;0.00;0.62;;;;;19.10;1.00;;;;;;2276382;60;1099;-85
2022/07/11 01:48:48;76932.00;0.26;133.74;0.00;0.00;0.62;;;;;19.10;1.00;;;;;;2276217;60;1028;-86
2022/07/11 01:51:15;30781.00;0.10;53.93;0.00;0.00;0.62;;;;;19.20;1.00;;;;;;2276231;60;1366;-86
2022/07/11 01:53:42;324295.00;1.08;559.68;105110.00;0.35;182.39;;;;;19.30;1.00;;;;;;2276280;60;1052;-85
2022/07/11 01:56:09;191517.00;0.64;331.32;0.00;0.00;0.62;;;;;19.30;1.00;;;;;;2281555;39;3574;-86
2022/07/11 01:58:38;128437.00;0.43;222.63;0.00;0.00;0.62;;;;;19.50;1.00;;;;;;2276295;60;998;-85
2022/07/11 02:01:05;151506.00;0.51;262.40;0.00;0.00;0.62;;;;;19.40;1.00;;;;;;2275957;60;2173;-85
2022/07/11 02:03:32;129592.00;0.43;224.63;0.00;0.00;0.62;;;;;19.30;1.00;;;;;;2276304;60;989;-85
2022/07/11 02:05:59;266931.00;0.89;461.07;0.00;0.00;0.62;;;;;19.70;1.00;;;;;;2276266;60;1426;-85
2022/07/11 02:08:26;181237.00;0.60;313.62;0.00;0.00;0.62;;;;;20.10;1.00;;;;;;2276197;60;1096;-84
2022/07/11 02:10:53;293289.00;0.98;506.38;0.00;0.00;0.62;;;;;19.80;1.00;;;;;;2276155;60;1411;-87
2022/07/11 02:13:22;237740.00;0.79;410.86;0.00;0.00;0.62;;;;;19.20;1.00;;;;;;2294004;39;3884;-85
2022/07/11 02:15:53;85374.00;0.28;148.32;0.00;0.00;0.62;;;;;19.50;1.00;;;;;;2276132;60;1018;-85
2022/07/11 02:18:20;351889.00;1.17;607.11;0.00;0.00;0.62;;;;;19.50;1.00;;;;;;2276131;60;1134;-86
2022/07/11 02:20:48;43490.00;0.14;75.93;0.00;0.00;0.62;;;;;19.30;1.00;;;;;;2276087;60;1990;-85
2022/07/11 02:23:16;15460.00;0.05;27.41;0.00;0.00;0.62;;;;;19.40;1.00;;;;;;2276086;60;1035;-86
2022/07/11 02:25:43;181208.00;0.60;313.57;0.00;0.00;0.62;;;;;19.50;1.00;;;;;;2276141;60;1070;-85
2022/07/11 02:28:12;169078.00;0.56;292.68;0.00;0.00;0.62;;;;;19.00;1.00;;;;;;2276163;60;941;-85
2022/07/11 02:30:40;14339.00;0.05;25.47;0.00;0.00;0.62;;;;;18.90;1.00;;;;;;2276110;60;1292;-85
2022/07/11 02:33:11;6569.00;0.02;12.00;0.00;0.00;0.62;;;;;19.30;1.00;;;;;;2276167;60;884;-85
2022/07/11 02:35:38;20193.00;0.07;35.60;0.00;0.00;0.62;;;;;19.50;1.00;;;;;;2276077;60;1103;-85
2022/07/11 02:38:05;365795.00;1.22;631.01;420.00;0.00;1.35;;;;;19.60;1.00;;;;;;2276194;60;1015;-86
2022/07/11 02:40:32;97898.00;0.33;169.94;0.00;0.00;0.62;;;;;19.70;1.00;;;;;;2276012;60;1917;-86
2022/07/11 02:42:59;72908.00;0.24;126.79;0.00;0.00;0.62;;;;;19.50;1.00;;;;;;2276135;60;1076;-86
2022/07/11 02:45:26;146962.00;0.49;254.57;0.00;0.00;0.62;;;;;19.50;1.00;;;;;;2276042;60;1100;-86
2022/07/11 02:47:52;163247.00;0.54;282.63;0.00;0.00;0.62;;;;;19.60;1.00;;;;;;2276158;60;952;-85
2022/07/11 02:50:21;191368.00;0.64;331.06;0.00;0.00;0.62;;;;;19.20;1.00;;;;;;2276215;60;1280;-86
2022/07/11 02:52:48;182430.00;0.61;315.67;0.00;0.00;0.62;;;;;19.10;1.00;;;;;;2276656;60;1193;-85
2022/07/11 02:55:15;12124.00;0.04;21.63;0.00;0.00;0.62;;;;;19.20;1.00;;;;;;2276822;60;913;-89
2022/07/11 02:57:43;26513.00;0.09;46.55;0.00;0.00;0.62;;;;;19.20;1.00;;;;;;2276764;60;1480;-85
2022/07/11 03:00:13;280043.00;0.93;483.61;8336.00;0.03;15.07;;;;;19.10;1.00;;;;;;2285842;40;3809;-85
2022/07/11 03:02:40;150773.00;0.50;261.14;0.00;0.00;0.62;;;;;18.70;1.00;;;;;;2272723;61;1022;-86
2022/07/11 03:05:08;97876.00;0.33;169.91;0.00;0.00;0.62;;;;;18.70;1.00;;;;;;2272751;61;1025;-85
2022/07/11 03:07:37;522.00;0.00;1.52;0.00;0.00;0.62;;;;;19.00;1.00;;;;;;2272769;61;941;-84
2022/07/11 03:10:04;144597.00;0.48;250.50;0.00;0.00;0.62;;;;;18.90;1.00;;;;;;2272633;61;1392;-87
2022/07/11 03:12:31;113264.00;0.38;196.46;0.00;0.00;0.62;;;;;18.80;1.00;;;;;;2272657;61;951;-84
2022/07/11 03:14:58;9436.00;0.03;16.97;0.00;0.00;0.62;;;;;18.80;1.00;;;;;;2272653;61;1507;-85
2022/07/11 03:17:25;28695.00;0.10;50.32;0.00;0.00;0.62;;;;;18.80;1.00;;;;;;2272676;61;1046;-85
2022/07/11 03:19:53;29964.00;0.10;52.52;0.00;0.00;0.62;;;;;18.90;1.00;;;;;;2272531;61;1915;-87
2022/07/11 03:22:19;145631.00;0.49;252.28;0.00;0.00;0.62;;;;;19.00;1.00;;;;;;2272549;61;1070;-84
2022/07/11 03:24:48;39227.00;0.13;68.55;0.00;0.00;0.62;;;;;19.00;1.00;;;;;;2272638;61;1028;-85
2022/07/11 03:27:15;153212.00;0.51;265.34;50766.00;0.17;88.51;;;;;19.20;1.00;;;;;;2272594;61;1090;-86
2022/07/11 03:29:42;100054.00;0.33;173.67;0.00;0.00;0.62;;;;;19.30;1.00;;;;;;2272699;61;1379;-86
2022/07/11 03:32:09;143905.00;0.48;249.30;0.00;0.00;0.62;;;;;19.20;1.00;;;;;;2272676;61;944;-85
2022/07/11 03:34:37;44260.00;0.15;77.26;0.00;0.00;0.62;;;;;19.20;1.00;;;;;;2272616;61;1634;-85
2022/07/11 03:37:04;169352.00;0.56;293.15;0.00;0.00;0.62;;;;;19.30;1.00;;;;;;2272669;61;937;-85
2022/07/11 03:39:32;96881.00;0.32;168.19;25493.00;0.08;44.78;;;;;19.10;1.00;;;;;;2272665;61;1038;-86
2022/07/11 03:42:01;173876.00;0.58;300.94;0.00;0.00;0.62;;;;;19.20;1.00;;;;;;2272555;61;2005;-86
2022/07/11 03:44:28;150333.00;0.50;260.38;0.00;0.00;0.62;;;;;19.40;1.00;;;;;;2272543;61;1067;-86
2022/07/11 03:46:55;256043.00;0.85;442.34;0.00;0.00;0.62;;;;;19.50;1.00;;;;;;2272537;61;1651;-86
2022/07/11 03:49:21;50419.00;0.17;87.91;0.00;0.00;0.62;;;;;19.40;1.00;;;;;;2272576;61;1102;-87
2022/07/11 03:51:48;101236.00;0.34;175.71;0.00;0.00;0.62;;;;;19.60;1.00;;;;;;2272488;61;1368;-85
2022/07/11 03:54:15;67583.00;0.23;117.58;0.00;0.00;0.62;;;;;19.60;1.00;;;;;;2272589;61;977;-86
2022/07/11 03:56:42;157007.00;0.52;271.88;0.00;0.00;0.62;;;;;19.60;1.00;;;;;;2272588;61;1096;-87
2022/07/11 03:59:10;200548.00;0.67;346.87;0.00;0.00;0.62;;;;;19.80;1.00;;;;;;2272501;61;1110;-86
2022/07/11 04:01:37;330641.00;1.10;570.59;46194.00;0.15;80.60;;;;;20.30;1.00;;;;;;2272530;61;1914;-86
2022/07/11 04:04:08;153472.00;0.51;265.79;0.00;0.00;0.62;;;;;20.60;1.00;;;;;;2272487;61;967;-86
2022/07/11 04:06:35;158147.00;0.53;273.85;0.00;0.00;0.62;;;;;20.70;1.00;;;;;;2272506;61;1607;-87
2022/07/11 04:09:02;289615.00;0.97;500.07;33088.00;0.11;57.93;;;;;20.30;1.00;;;;;;2272419;61;925;-86
2022/07/11 04:11:29;37697.00;0.13;65.90;0.00;0.00;0.62;;;;;19.90;1.00;;;;;;2272431;61;1305;-87
2022/07/11 04:13:56;171766.00;0.57;297.31;0.00;0.00;0.62;;;;;19.70;1.00;;;;;;2272450;61;1141;-86
2022/07/11 04:16:24;136363.00;0.45;236.30;0.00;0.00;0.62;;;;;20.10;1.00;;;;;;2272474;61;1070;-86
2022/07/11 04:18:51;211081.00;0.70;365.00;0.00;0.00;0.62;;;;;20.50;1.00;;;;;;2272463;61;1148;-84
2022/07/11 04:21:18;201102.00;0.67;347.82;0.00;0.00;0.62;;;;;20.40;1.00;;;;;;2272479;61;1985;-86
2022/07/11 04:23:45;10199.00;0.03;18.29;0.00;0.00;0.62;;;;;20.30;1.00;;;;;;2272457;61;1099;-86
2022/07/11 04:26:12;123923.00;0.41;214.85;0.00;0.00;0.62;;;;;20.40;1.00;;;;;;2272482;61;1609;-86
2022/07/11 04:28:39;127600.00;0.43;221.19;0.00;0.00;0.62;;;;;20.60;1.00;;;;;;2272437;61;1083;-85
2022/07/11 04:31:06;363018.00;1.21;626.24;13888.00;0.05;24.68;;;;;20.50;1.00;;;;;;2272356;61;1363;-85
2022/07/11 04:33:35;377474.00;1.26;651.08;94645.00;0.32;164.33;;;;;20.30;1.00;;;;;;2272365;61;1401;-86
2022/07/11 04:36:02;328148.00;1.09;566.30;54246.00;0.18;94.53;;;;;20.20;1.00;;;;;;2272311;61;922;-86
2022/07/11 04:38:32;292065.00;0.97;504.28;24537.00;0.08;43.13;;;;;20.40;1.00;;;;;;2272138;61;1575;-84
2022/07/11 04:40:59;361709.00;1.21;623.99;0.00;0.00;0.62;;;;;20.10;1.00;;;;;;2276235;40;3634;-87
2022/07/11 04:46:04;518044.00;1.73;892.90;24423.00;0.08;42.93;;;;;19.60;1.00;;;;;;2311370;40;1801;-85
2022/07/11 04:48:31;204093.00;0.68;352.97;0.00;0.00;0.62;;;;;19.40;1.00;;;;;;2276273;60;1748;-86
2022/07/11 04:51:00;332947.00;1.11;574.55;27102.00;0.09;47.57;;;;;19.70;1.00;;;;;;2276440;60;1273;-86
2022/07/11 04:53:27;216551.00;0.72;374.41;64862.00;0.22;112.88;;;;;20.00;1.00;;;;;;2276377;60;1023;-86
2022/07/11 04:55:54;221933.00;0.74;383.67;0.00;0.00;0.62;;;;;20.00;1.00;;;;;;2276397;60;1063;-85
2022/07/11 04:58:21;209418.00;0.70;362.13;0.00;0.00;0.62;;;;;19.70;1.00;;;;;;2276286;60;1186;-87
2022/07/11 05:00:48;227485.00;0.76;393.22;0.00;0.00;0.62;;;;;19.30;1.00;;;;;;2276113;60;2009;-85
2022/07/11 05:03:16;277760.00;0.93;479.69;0.00;0.00;0.62;;;;;19.50;1.00;;;;;;2276482;60;975;-85
2022/07/11 05:05:43;33076.00;0.11;57.91;0.00;0.00;0.62;;;;;19.50;1.00;;;;;;2276154;60;1724;-85
2022/07/11 05:08:11;170896.00;0.57;295.81;0.00;0.00;0.62;;;;;19.90;1.00;;;;;;2276355;60;980;-86
2022/07/11 05:10:38;167122.00;0.56;289.31;0.00;0.00;0.62;;;;;19.90;1.00;;;;;;2276105;60;1527;-84
2022/07/11 05:13:05;272080.00;0.91;469.92;0.00;0.00;0.62;;;;;19.60;1.00;;;;;;2276318;60;1032;-86
2022/07/11 05:15:32;253462.00;0.84;437.90;0.00;0.00;0.62;;;;;19.90;1.00;;;;;;2276236;60;1079;-86
2022/07/11 05:17:59;205668.00;0.69;355.68;0.00;0.00;0.62;;;;;20.10;1.00;;;;;;2276373;60;1150;-86
2022/07/11 05:20:27;223377.00;0.74;386.15;0.00;0.00;0.62;;;;;20.50;1.00;;;;;;2276274;60;1981;-86
2022/07/11 05:22:54;333516.00;1.11;575.53;707.00;0.00;1.85;;;;;20.60;1.00;;;;;;2276189;60;1479;-86
2022/07/11 05:25:22;199980.00;0.67;345.89;0.00;0.00;0.62;;;;;21.00;1.00;;;;;;2276354;60;1296;-85
2022/07/11 05:27:49;132583.00;0.44;229.78;0.00;0.00;0.62;;;;;21.40;1.00;;;;;;2276051;60;1730;-85
2022/07/11 05:30:16;318778.00;1.06;550.20;0.00;0.00;0.62;;;;;21.70;1.00;;;;;;2276042;60;1394;-86
2022/07/11 05:32:43;190828.00;0.64;330.13;40632.00;0.14;70.98;;;;;21.30;1.00;;;;;;2276353;60;979;-86
2022/07/11 05:35:10;179960.00;0.60;311.42;0.00;0.00;0.62;;;;;21.20;1.00;;;;;;2276256;60;1003;-86
2022/07/11 05:37:39;180146.00;0.60;311.74;0.00;0.00;0.62;;;;;21.40;1.00;;;;;;2276130;60;1122;-86
2022/07/11 05:40:07;394364.00;1.31;680.12;0.00;0.00;0.62;;;;;21.60;1.00;;;;;;2278917;55;3766;-86
2022/07/11 05:42:36;150385.00;0.50;260.47;0.00;0.00;0.62;;;;;22.10;1.00;;;;;;2276215;60;2027;-86
2022/07/11 05:45:05;174820.00;0.58;302.57;0.00;0.00;0.62;;;;;22.60;1.00;;;;;;2278647;39;3550;-85
2022/07/11 05:47:32;248794.00;0.83;429.88;0.00;0.00;0.62;;;;;22.70;1.00;;;;;;2276327;60;991;-85
2022/07/11 05:49:59;229431.00;0.76;396.57;0.00;0.00;0.62;;;;;22.60;1.00;;;;;;2276166;60;1249;-85
2022/07/11 05:52:26;131208.00;0.44;227.41;0.00;0.00;0.62;;;;;22.40;1.00;;;;;;2276264;60;1043;-86
2022/07/11 05:54:54;205865.00;0.69;356.02;26831.00;0.09;47.10;;;;;23.00;1.00;;;;;;2276106;60;882;-85
2022/07/11 05:57:21;124790.00;0.42;216.34;0.00;0.00;0.62;;;;;23.50;1.00;;;;;;2276083;60;1230;-85
2022/07/11 05:59:50;249911.00;0.83;431.80;0.00;0.00;0.62;;;;;23.50;1.00;;;;;;2276031;60;1368;-85
2022/07/11 06:02:18;326700.00;1.09;563.81;0.00;0.00;0.62;;;;;23.70;1.00;;;;;;2293062;55;3584;-85
2022/07/11 06:04:46;276549.00;0.92;477.60;0.00;0.00;0.62;;;;;24.00;1.00;;;;;;2276145;60;1139;-85
2022/07/11 06:08:40;156465.00;0.52;270.95;0.00;0.00;0.62;;;;;24.50;1.00;;;;;;2276213;60;1539;-85
2022/07/11 06:09:59;190719.00;0.64;329.95;0.00;0.00;0.62;;;;;25.10;1.00;;;;;;2276056;60;1361;-86
2022/07/11 06:12:26;189634.00;0.63;328.08;0.00;0.00;0.62;;;;;25.90;1.00;;;;;;2276094;60;932;-86
2022/07/11 06:14:55;205830.00;0.69;355.96;0.00;0.00;0.62;;;;;26.20;1.00;;;;;;2276131;60;1054;-85
2022/07/11 06:17:23;270082.00;0.90;466.48;0.00;0.00;0.62;;;;;26.00;1.00;;;;;;2276117;60;1427;-87
2022/07/11 06:22:19;976480.00;3.25;1690.86;0.00;0.00;0.62;;;;;25.90;1.00;;;;;;2273893;61;1964;-84
2022/07/11 06:24:46;0.00;0.00;0.62;0.00;0.00;0.62;;;;;25.90;1.00;;;;;;2271941;61;1169;-85
2022/07/11 06:27:13;96133.00;0.32;166.90;0.00;0.00;0.62;;;;;25.90;1.00;;;;;;2272857;61;1051;-85
2022/07/11 06:29:40;165806.00;0.55;287.04;0.00;0.00;0.62;;;;;25.80;1.00;;;;;;2272832;60;1256;-85
2022/07/11 06:32:08;119099.00;0.40;206.53;13076.00;0.04;23.28;;;;;25.60;1.00;;;;;;2272813;60;1725;-84
2022/07/11 06:34:36;206237.00;0.69;356.66;0.00;0.00;0.62;;;;;25.40;1.00;;;;;;2272872;60;1084;-84
2022/07/11 06:37:04;79300.00;0.26;137.83;0.00;0.00;0.62;;;;;25.10;1.00;;;;;;2272824;60;987;-86
2022/07/11 06:39:31;226445.00;0.75;391.43;0.00;0.00;0.62;;;;;25.20;1.00;;;;;;2272741;60;933;-85
2022/07/11 06:41:58;110561.00;0.37;191.80;0.00;0.00;0.62;;;;;25.90;1.00;;;;;;2272803;60;1915;-84
2022/07/11 06:44:25;289995.00;0.97;500.72;0.00;0.00;0.62;;;;;26.40;1.00;;;;;;2284127;40;3607;-87
2022/07/11 06:46:52;23176.00;0.08;40.77;0.00;0.00;0.62;;;;;27.30;1.00;;;;;;2276939;60;1082;-86
2022/07/11 06:49:21;171696.00;0.57;297.19;0.00;0.00;0.62;;;;;28.30;1.00;;;;;;2276824;60;1489;-86
2022/07/11 06:51:47;52132.00;0.17;90.87;0.00;0.00;0.62;;;;;29.20;1.00;;;;;;2276726;60;1609;-87
2022/07/11 06:54:14;11841.00;0.04;21.14;0.00;0.00;0.62;;;;;30.10;1.00;;;;;;2276690;60;1110;-86
2022/07/11 06:56:41;212597.00;0.71;367.60;42268.00;0.14;73.81;;;;;30.70;1.00;;;;;;2276888;60;1113;-86
2022/07/11 07:01:37;1079672.00;3.60;1874.11;0.00;0.00;0.62;;;;;32.60;1.00;;;;;;2270510;61;1970;-85
2022/07/11 07:04:04;84103.00;0.28;146.12;0.00;0.00;0.62;;;;;32.70;1.00;;;;;;2267832;61;1218;-84
2022/07/11 07:06:32;0.00;0.00;0.62;0.00;0.00;0.62;;;;;32.70;1.00;;;;;;2268324;61;1113;-84
2022/07/11 07:08:59;80230.00;0.27;139.43;0.00;0.00;0.62;;;;;32.80;1.00;;;;;;2268743;61;1082;-85
2022/07/11 07:11:26;241001.00;0.80;416.47;0.00;0.00;0.62;;;;;33.30;1.00;;;;;;2268705;61;1257;-85
2022/07/11 07:13:53;0.00;0.00;0.62;0.00;0.00;0.62;;;;;33.40;1.00;;;;;;2268400;61;1675;-84
2022/07/11 07:16:19;0.00;0.00;0.62;0.00;0.00;0.62;;;;;33.60;1.00;;;;;;2268428;61;1117;-85
2022/07/11 07:18:48;0.00;0.00;0.62;0.00;0.00;0.62;;;;;34.20;1.00;;;;;;2268571;61;1144;-84
2022/07/11 07:21:15;0.00;0.00;0.62;0.00;0.00;0.62;;;;;34.60;1.00;;;;;;2268513;61;1920;-85
2022/07/11 07:23:43;0.00;0.00;0.62;0.00;0.00;0.62;;;;;34.80;1.00;;;;;;2268631;61;2196;-84
2022/07/11 07:26:10;0.00;0.00;0.62;0.00;0.00;0.62;;;;;33.70;1.00;;;;;;2268545;61;1109;-84
2022/07/11 07:28:38;0.00;0.00;0.62;0.00;0.00;0.62;;;;;32.70;1.00;;;;;;2268533;61;1104;-85
2022/07/11 07:31:05;334066.00;1.11;576.47;92339.00;0.31;160.35;;;;;32.70;1.00;;;;;;2268662;61;1293;-84
2022/07/11 07:33:32;0.00;0.00;0.62;0.00;0.00;0.62;;;;;32.90;1.00;;;;;;2268494;61;1104;-85
2022/07/11 07:35:59;83992.00;0.28;145.93;0.00;0.00;0.62;;;;;32.10;1.00;;;;;;2268455;61;1088;-86
2022/07/11 07:38:25;71935.00;0.24;125.10;0.00;0.00;0.62;;;;;32.10;1.00;;;;;;2268381;61;1183;-84
2022/07/11 07:40:54;0.00;0.00;0.62;0.00;0.00;0.62;;;;;31.30;1.00;;;;;;2267689;61;1294;-85
2022/07/11 07:43:21;0.00;0.00;0.62;0.00;0.00;0.62;;;;;30.90;1.00;;;;;;2267790;61;1932;-84
2022/07/11 07:45:48;200891.00;0.67;347.46;0.00;0.00;0.62;;;;;30.60;1.00;;;;;;2268289;61;1126;-85
2022/07/11 07:48:15;0.00;0.00;0.62;0.00;0.00;0.62;;;;;30.60;1.00;;;;;;2268417;61;1116;-84
2022/07/11 07:50:42;0.00;0.00;0.62;0.00;0.00;0.62;;;;;30.50;1.00;;;;;;2268059;61;1312;-85
2022/07/11 07:53:09;207027.00;0.69;358.02;0.00;0.00;0.62;;;;;30.20;1.00;;;;;;2268603;61;1014;-85
2022/07/11 07:55:36;73680.00;0.25;128.12;0.00;0.00;0.62;;;;;30.50;1.00;;;;;;2268452;61;1058;-84
2022/07/11 07:58:05;54830.00;0.18;95.54;0.00;0.00;0.62;;;;;31.20;1.00;;;;;;2268616;61;1102;-86
2022/07/11 08:03:21;0.00;0.00;0.62;0.00;0.00;0.62;;;;;32.10;1.00;;;;;;2260690;61;1936;-87
2022/07/11 08:05:48;0.00;0.00;0.62;0.00;0.00;0.62;;;;;33.50;1.00;;;;;;2268549;61;1112;-85
2022/07/11 08:08:15;0.00;0.00;0.62;0.00;0.00;0.62;;;;;33.50;1.00;;;;;;2268474;61;1035;-85
2022/07/11 08:10:42;75482.00;0.25;131.23;0.00;0.00;0.62;;;;;34.20;1.00;;;;;;2268214;61;1681;-84
2022/07/11 08:13:10;0.00;0.00;0.62;0.00;0.00;0.62;;;;;35.40;1.00;;;;;;2268500;61;1099;-86
2022/07/11 08:15:37;0.00;0.00;0.62;0.00;0.00;0.62;;;;;35.60;1.00;;;;;;2268529;61;1687;-86
2022/07/11 08:18:04;0.00;0.00;0.62;0.00;0.00;0.62;;;;;35.20;1.00;;;;;;2268473;61;1120;-85
2022/07/11 08:20:31;18800.00;0.06;33.19;0.00;0.00;0.62;;;;;34.50;1.00;;;;;;2268345;61;1266;-86
2022/07/11 08:23:00;0.00;0.00;0.62;0.00;0.00;0.62;;;;;34.60;1.00;;;;;;2268434;61;1989;-85
2022/07/11 08:25:27;25969.00;0.09;45.61;0.00;0.00;0.62;;;;;34.30;1.00;;;;;;2268349;61;1088;-86
2022/07/11 08:27:54;91303.00;0.30;158.56;0.00;0.00;0.62;;;;;34.30;1.00;;;;;;2268552;61;1071;-87
2022/07/11 08:30:23;121802.00;0.41;211.19;0.00;0.00;0.62;;;;;34.30;1.00;;;;;;2268483;61;1264;-84
2022/07/11 08:32:49;111116.00;0.37;192.76;40394.00;0.13;70.57;;;;;34.20;1.00;;;;;;2268512;61;1085;-86
2022/07/11 08:35:16;31095.00;0.10;54.48;0.00;0.00;0.62;;;;;34.20;1.00;;;;;;2268571;61;1125;-85
2022/07/11 08:37:43;30871.00;0.10;54.09;0.00;0.00;0.62;;;;;34.40;1.00;;;;;;2268526;61;930;-86
2022/07/11 08:40:11;64751.00;0.22;112.69;0.00;0.00;0.62;;;;;34.10;1.00;;;;;;2268507;61;1368;-86
2022/07/11 08:42:44;43768.00;0.15;76.41;0.00;0.00;0.62;;;;;34.50;1.00;;;;;;2268427;61;1993;-86
2022/07/11 08:45:12;92629.00;0.31;160.85;0.00;0.00;0.62;;;;;33.60;1.00;;;;;;2268481;61;1039;-86
2022/07/11 08:47:44;0.00;0.00;0.62;0.00;0.00;0.62;;;;;33.30;1.00;;;;;;2268526;61;1126;-85
2022/07/11 08:50:12;0.00;0.00;0.62;0.00;0.00;0.62;;;;;33.00;1.00;;;;;;2264577;61;1352;-85
2022/07/11 08:52:40;29524.00;0.10;51.76;0.00;0.00;0.62;;;;;32.60;1.00;;;;;;2268188;61;1602;-86
2022/07/11 08:55:07;0.00;0.00;0.62;0.00;0.00;0.62;;;;;33.10;1.00;;;;;;2268450;61;1149;-85
2022/07/11 08:57:35;20832.00;0.07;36.71;0.00;0.00;0.62;;;;;33.60;1.00;;;;;;2268518;61;1130;-86
2022/07/11 09:00:05;0.00;0.00;0.62;0.00;0.00;0.62;;;;;33.60;1.00;;;;;;2268367;61;1344;-85
2022/07/11 09:02:33;42398.00;0.14;74.04;0.00;0.00;0.62;;;;;33.20;1.00;;;;;;2268117;61;2004;-84
2022/07/11 09:05:05;78261.00;0.26;136.03;0.00;0.00;0.62;;;;;32.90;1.00;;;;;;2268087;61;1190;-87
2022/07/11 09:07:32;0.00;0.00;0.62;0.00;0.00;0.62;;;;;32.70;1.00;;;;;;2268448;61;1133;-87
2022/07/11 09:10:00;52833.00;0.18;92.09;0.00;0.00;0.62;;;;;33.40;1.00;;;;;;2268340;61;1421;-86
2022/07/11 09:12:27;0.00;0.00;0.62;0.00;0.00;0.62;;;;;32.90;1.00;;;;;;2268348;61;1094;-86
2022/07/11 09:14:54;15179.00;0.05;26.92;0.00;0.00;0.62;;;;;33.20;1.00;;;;;;2268336;61;1113;-84
2022/07/11 09:17:27;0.00;0.00;0.62;0.00;0.00;0.62;;;;;32.60;1.00;;;;;;2268329;61;951;-85
2022/07/11 09:19:54;0.00;0.00;0.62;0.00;0.00;0.62;;;;;32.70;1.00;;;;;;2268306;61;1459;-85
2022/07/11 09:25:21;740.00;0.00;1.90;0.00;0.00;0.62;;;;;32.90;1.00;;;;;;2268464;61;690;-85
2022/07/11 09:27:50;0.00;0.00;0.62;0.00;0.00;0.62;;;;;32.30;1.00;;;;;;2268354;61;943;-85
2022/07/11 09:30:20;0.00;0.00;0.62;0.00;0.00;0.62;;;;;32.20;1.00;;;;;;2268383;61;1287;-87
2022/07/11 09:32:58;40251.00;0.13;70.32;0.00;0.00;0.62;;;;;31.50;1.00;;;;;;2268331;61;2022;-87
2022/07/11 09:35:27;0.00;0.00;0.62;0.00;0.00;0.62;;;;;30.60;1.00;;;;;;2268396;61;1648;-86
2022/07/11 09:37:56;29174.00;0.10;51.15;0.00;0.00;0.62;;;;;29.40;1.00;;;;;;2268390;61;1086;-85
2022/07/11 09:40:25;0.00;0.00;0.62;0.00;0.00;0.62;;;;;29.40;1.00;;;;;;2268306;61;1250;-86
2022/07/11 09:42:54;0.00;0.00;0.62;0.00;0.00;0.62;;;;;29.80;1.00;;;;;;2268210;61;2020;-88
2022/07/11 09:45:22;27100.00;0.09;47.56;0.00;0.00;0.62;;;;;29.80;1.00;;;;;;2268276;61;1086;-86
2022/07/11 09:47:51;0.00;0.00;0.62;0.00;0.00;0.62;;;;;29.60;1.00;;;;;;2268318;61;1652;-87
2022/07/11 09:50:22;29372.00;0.10;51.50;0.00;0.00;0.62;;;;;29.60;1.00;;;;;;2268295;61;1289;-85
2022/07/11 09:53:06;0.00;0.00;0.62;0.00;0.00;0.62;;;;;29.20;1.00;;;;;;2268353;61;1066;-86
2022/07/11 09:55:37;0.00;0.00;0.62;0.00;0.00;0.62;;;;;28.10;1.00;;;;;;2268280;61;1081;-85
2022/07/11 09:58:07;341519.00;1.14;589.28;0.00;0.00;0.62;;;;;27.90;1.00;;;;;;2279051;39;3667;-86
2022/07/11 10:00:36;0.00;0.00;0.62;0.00;0.00;0.62;;;;;27.90;1.00;;;;;;2277188;61;1272;-88
2022/07/11 10:03:04;0.00;0.00;0.62;0.00;0.00;0.62;;;;;28.20;1.00;;;;;;2277700;61;1990;-86
2022/07/11 10:05:31;95559.00;0.32;165.91;21656.00;0.07;38.14;;;;;28.00;1.00;;;;;;2277821;61;1139;-87
2022/07/11 10:07:58;30583.00;0.10;53.59;0.00;0.00;0.62;;;;;27.70;1.00;;;;;;2277467;60;1560;-87
2022/07/11 10:10:28;96893.00;0.32;168.21;0.00;0.00;0.62;;;;;27.10;1.00;;;;;;2276872;60;1375;-85
2022/07/11 10:12:56;72272.00;0.24;125.69;0.00;0.00;0.62;;;;;26.80;1.00;;;;;;2276943;60;1129;-87
2022/07/11 10:15:28;0.00;0.00;0.62;0.00;0.00;0.62;;;;;27.50;1.00;;;;;;2277134;60;1025;-87
2022/07/11 10:18:06;17964.00;0.06;31.74;0.00;0.00;0.62;;;;;27.80;1.00;;;;;;2277145;60;1021;-88
2022/07/11 10:20:41;0.00;0.00;0.62;0.00;0.00;0.62;;;;;27.70;1.00;;;;;;2277031;60;1496;-87
2022/07/11 10:23:20;0.00;0.00;0.62;0.00;0.00;0.62;;;;;27.50;1.00;;;;;;2277063;60;1972;-88